sensor_id;sensor_type;location;lat;lon;timestamp;P1;durP1;ratioP1;P2;durP2;ratioP2
11620;SDS011;5866;49.094;11.900;2023-07-13T00:01:17;48.63;;;45.70;;
11620;SDS011;5866;49.094;11.900;2023-07-13T00:03:44;52.15;;;49.25;;
11620;SDS011;5866;49.094;11.900;2023-07-13T00:06:12;46.25;;;43.22;;
11620;SDS011;5866;49.094;11.900;2023-07-13T00:08:40;39.92;;;37.17;;
11620;SDS011;5866;49.094;11.900;2023-07-13T00:11:07;43.92;;;41.25;;
11620;SDS011;5866;49.094;11.900;2023-07-13T00:13:36;55.50;;;51.78;;
11620;SDS011;5866;49.094;11.900;2023-07-13T00:16:07;53.25;;;50.25;;
11620;SDS011;5866;49.094;11.900;2023-07-13T00:18:36;49.53;;;46.20;;
11620;SDS011;5866;49.094;11.900;2023-07-13T00:21:04;49.45;;;46.58;;
11620;SDS011;5866;49.094;11.900;2023-07-13T00:23:32;51.00;;;47.90;;
11620;SDS011;5866;49.094;11.900;2023-07-13T00:26:00;49.10;;;46.17;;
11620;SDS011;5866;49.094;11.900;2023-07-13T00:28:28;50.75;;;47.65;;
11620;SDS011;5866;49.094;11.900;2023-07-13T00:30:56;52.33;;;48.92;;
11620;SDS011;5866;49.094;11.900;2023-07-13T00:33:26;50.38;;;47.30;;
11620;SDS011;5866;49.094;11.900;2023-07-13T00:35:54;56.28;;;52.60;;
11620;SDS011;5866;49.094;11.900;2023-07-13T00:38:23;25.80;;;23.95;;
11620;SDS011;5866;49.094;11.900;2023-07-13T00:40:50;24.52;;;22.65;;
11620;SDS011;5866;49.094;11.900;2023-07-13T00:43:19;28.70;;;26.23;;
11620;SDS011;5866;49.094;11.900;2023-07-13T00:48:45;21.85;;;20.02;;
11620;SDS011;5866;49.094;11.900;2023-07-13T00:51:16;24.75;;;22.42;;
11620;SDS011;5866;49.094;11.900;2023-07-13T00:53:47;29.10;;;27.15;;
11620;SDS011;5866;49.094;11.900;2023-07-13T00:56:15;31.52;;;29.17;;
11620;SDS011;5866;49.094;11.900;2023-07-13T00:58:42;37.35;;;34.90;;
11620;SDS011;5866;49.094;11.900;2023-07-13T01:01:10;33.55;;;31.08;;
11620;SDS011;5866;49.094;11.900;2023-07-13T01:03:39;48.75;;;45.35;;
11620;SDS011;5866;49.094;11.900;2023-07-13T01:06:08;64.95;;;60.90;;
11620;SDS011;5866;49.094;11.900;2023-07-13T01:08:37;63.40;;;59.17;;
11620;SDS011;5866;49.094;11.900;2023-07-13T01:11:06;44.08;;;40.80;;
11620;SDS011;5866;49.094;11.900;2023-07-13T01:13:35;35.45;;;33.13;;
11620;SDS011;5866;49.094;11.900;2023-07-13T01:16:03;40.13;;;37.50;;
11620;SDS011;5866;49.094;11.900;2023-07-13T01:18:39;48.55;;;45.22;;
11620;SDS011;5866;49.094;11.900;2023-07-13T01:21:09;50.17;;;47.00;;
11620;SDS011;5866;49.094;11.900;2023-07-13T01:23:36;47.97;;;44.47;;
11620;SDS011;5866;49.094;11.900;2023-07-13T01:26:04;45.88;;;42.80;;
11620;SDS011;5866;49.094;11.900;2023-07-13T01:28:32;59.58;;;55.63;;
11620;SDS011;5866;49.094;11.900;2023-07-13T01:31:03;39.72;;;37.03;;
11620;SDS011;5866;49.094;11.900;2023-07-13T01:33:31;35.05;;;32.35;;
11620;SDS011;5866;49.094;11.900;2023-07-13T01:35:59;32.00;;;29.50;;
11620;SDS011;5866;49.094;11.900;2023-07-13T01:38:30;33.47;;;30.73;;
11620;SDS011;5866;49.094;11.900;2023-07-13T01:40:58;25.80;;;23.75;;
11620;SDS011;5866;49.094;11.900;2023-07-13T01:43:25;29.02;;;26.83;;
11620;SDS011;5866;49.094;11.900;2023-07-13T01:45:53;28.95;;;26.60;;
11620;SDS011;5866;49.094;11.900;2023-07-13T01:48:34;25.25;;;23.13;;
11620;SDS011;5866;49.094;11.900;2023-07-13T01:51:02;25.35;;;23.48;;
11620;SDS011;5866;49.094;11.900;2023-07-13T01:53:31;28.52;;;26.33;;
11620;SDS011;5866;49.094;11.900;2023-07-13T01:55:59;32.38;;;29.88;;
11620;SDS011;5866;49.094;11.900;2023-07-13T01:58:26;28.27;;;25.90;;
11620;SDS011;5866;49.094;11.900;2023-07-13T02:00:54;33.15;;;30.55;;
11620;SDS011;5866;49.094;11.900;2023-07-13T02:03:21;34.38;;;32.00;;
11620;SDS011;5866;49.094;11.900;2023-07-13T02:05:49;36.65;;;34.10;;
11620;SDS011;5866;49.094;11.900;2023-07-13T02:08:17;51.25;;;47.60;;
11620;SDS011;5866;49.094;11.900;2023-07-13T02:10:46;43.92;;;41.00;;
11620;SDS011;5866;49.094;11.900;2023-07-13T02:13:14;48.28;;;45.03;;
11620;SDS011;5866;49.094;11.900;2023-07-13T02:15:42;59.40;;;55.38;;
11620;SDS011;5866;49.094;11.900;2023-07-13T02:18:09;44.47;;;41.47;;
11620;SDS011;5866;49.094;11.900;2023-07-13T02:20:37;28.83;;;26.73;;
11620;SDS011;5866;49.094;11.900;2023-07-13T02:23:04;27.52;;;25.25;;
11620;SDS011;5866;49.094;11.900;2023-07-13T02:25:35;29.88;;;27.60;;
11620;SDS011;5866;49.094;11.900;2023-07-13T02:28:04;29.35;;;26.92;;
11620;SDS011;5866;49.094;11.900;2023-07-13T02:30:34;26.67;;;24.45;;
11620;SDS011;5866;49.094;11.900;2023-07-13T02:33:01;25.58;;;23.27;;
11620;SDS011;5866;49.094;11.900;2023-07-13T02:35:29;24.05;;;21.48;;
11620;SDS011;5866;49.094;11.900;2023-07-13T02:37:57;33.08;;;30.48;;
11620;SDS011;5866;49.094;11.900;2023-07-13T02:40:25;33.40;;;30.60;;
11620;SDS011;5866;49.094;11.900;2023-07-13T02:42:52;31.27;;;29.00;;
11620;SDS011;5866;49.094;11.900;2023-07-13T02:45:21;28.05;;;24.80;;
11620;SDS011;5866;49.094;11.900;2023-07-13T02:47:49;27.60;;;23.58;;
11620;SDS011;5866;49.094;11.900;2023-07-13T02:50:16;25.30;;;22.58;;
11620;SDS011;5866;49.094;11.900;2023-07-13T02:52:44;26.77;;;24.10;;
11620;SDS011;5866;49.094;11.900;2023-07-13T02:55:12;30.83;;;28.45;;
11620;SDS011;5866;49.094;11.900;2023-07-13T02:57:39;27.80;;;24.92;;
11620;SDS011;5866;49.094;11.900;2023-07-13T03:00:07;59.33;;;55.20;;
11620;SDS011;5866;49.094;11.900;2023-07-13T03:02:37;67.75;;;63.33;;
11620;SDS011;5866;49.094;11.900;2023-07-13T03:05:05;46.28;;;43.03;;
11620;SDS011;5866;49.094;11.900;2023-07-13T03:07:33;61.35;;;57.55;;
11620;SDS011;5866;49.094;11.900;2023-07-13T03:10:01;82.63;;;77.63;;
11620;SDS011;5866;49.094;11.900;2023-07-13T03:12:29;66.45;;;62.25;;
11620;SDS011;5866;49.094;11.900;2023-07-13T03:14:56;94.18;;;88.22;;
11620;SDS011;5866;49.094;11.900;2023-07-13T03:17:24;105.03;;;98.40;;
11620;SDS011;5866;49.094;11.900;2023-07-13T03:19:53;117.43;;;110.80;;
11620;SDS011;5866;49.094;11.900;2023-07-13T03:22:21;119.95;;;112.90;;
11620;SDS011;5866;49.094;11.900;2023-07-13T03:24:48;107.60;;;101.47;;
11620;SDS011;5866;49.094;11.900;2023-07-13T03:27:16;99.18;;;93.53;;
11620;SDS011;5866;49.094;11.900;2023-07-13T03:29:44;117.50;;;111.00;;
11620;SDS011;5866;49.094;11.900;2023-07-13T03:32:12;125.82;;;118.95;;
11620;SDS011;5866;49.094;11.900;2023-07-13T03:34:39;145.27;;;137.20;;
11620;SDS011;5866;49.094;11.900;2023-07-13T03:37:08;130.35;;;123.22;;
11620;SDS011;5866;49.094;11.900;2023-07-13T03:39:36;124.53;;;117.60;;
11620;SDS011;5866;49.094;11.900;2023-07-13T03:42:04;115.15;;;108.60;;
11620;SDS011;5866;49.094;11.900;2023-07-13T03:44:32;116.47;;;109.90;;
11620;SDS011;5866;49.094;11.900;2023-07-13T03:46:59;119.88;;;113.10;;
11620;SDS011;5866;49.094;11.900;2023-07-13T03:49:27;123.93;;;116.70;;
11620;SDS011;5866;49.094;11.900;2023-07-13T03:51:54;122.00;;;115.10;;
11620;SDS011;5866;49.094;11.900;2023-07-13T03:54:23;125.18;;;118.35;;
11620;SDS011;5866;49.094;11.900;2023-07-13T03:56:51;142.93;;;134.63;;
11620;SDS011;5866;49.094;11.900;2023-07-13T03:59:19;122.70;;;116.05;;
11620;SDS011;5866;49.094;11.900;2023-07-13T04:01:46;148.70;;;140.38;;
11620;SDS011;5866;49.094;11.900;2023-07-13T04:04:14;126.00;;;118.85;;
11620;SDS011;5866;49.094;11.900;2023-07-13T04:06:42;123.38;;;116.78;;
11620;SDS011;5866;49.094;11.900;2023-07-13T04:09:09;137.10;;;129.63;;
11620;SDS011;5866;49.094;11.900;2023-07-13T04:11:38;150.85;;;142.85;;
11620;SDS011;5866;49.094;11.900;2023-07-13T04:14:06;148.57;;;140.15;;
11620;SDS011;5866;49.094;11.900;2023-07-13T04:16:33;148.20;;;140.23;;
11620;SDS011;5866;49.094;11.900;2023-07-13T04:19:01;84.28;;;79.35;;
11620;SDS011;5866;49.094;11.900;2023-07-13T04:21:29;28.15;;;26.15;;
11620;SDS011;5866;49.094;11.900;2023-07-13T04:23:58;37.10;;;34.05;;
11620;SDS011;5866;49.094;11.900;2023-07-13T04:26:26;71.60;;;67.10;;
11620;SDS011;5866;49.094;11.900;2023-07-13T04:28:55;76.60;;;72.30;;
11620;SDS011;5866;49.094;11.900;2023-07-13T04:31:22;27.10;;;25.23;;
11620;SDS011;5866;49.094;11.900;2023-07-13T04:33:50;13.55;;;12.25;;
11620;SDS011;5866;49.094;11.900;2023-07-13T04:36:19;10.73;;;9.82;;
11620;SDS011;5866;49.094;11.900;2023-07-13T04:38:47;10.88;;;10.00;;
11620;SDS011;5866;49.094;11.900;2023-07-13T04:41:14;8.88;;;8.02;;
11620;SDS011;5866;49.094;11.900;2023-07-13T04:43:42;7.45;;;6.75;;
11620;SDS011;5866;49.094;11.900;2023-07-13T04:46:12;7.85;;;7.05;;
11620;SDS011;5866;49.094;11.900;2023-07-13T04:48:45;7.15;;;6.43;;
11620;SDS011;5866;49.094;11.900;2023-07-13T04:51:13;6.63;;;5.40;;
11620;SDS011;5866;49.094;11.900;2023-07-13T04:53:40;8.18;;;7.38;;
11620;SDS011;5866;49.094;11.900;2023-07-13T04:56:09;9.95;;;9.02;;
11620;SDS011;5866;49.094;11.900;2023-07-13T04:58:37;12.05;;;11.02;;
11620;SDS011;5866;49.094;11.900;2023-07-13T05:01:06;10.02;;;7.95;;
11620;SDS011;5866;49.094;11.900;2023-07-13T05:03:36;10.00;;;8.75;;
11620;SDS011;5866;49.094;11.900;2023-07-13T05:06:05;8.43;;;7.55;;
11620;SDS011;5866;49.094;11.900;2023-07-13T05:08:36;6.40;;;5.80;;
11620;SDS011;5866;49.094;11.900;2023-07-13T05:11:04;10.70;;;5.20;;
11620;SDS011;5866;49.094;11.900;2023-07-13T05:13:33;5.82;;;5.25;;
11620;SDS011;5866;49.094;11.900;2023-07-13T05:16:02;7.45;;;4.70;;
11620;SDS011;5866;49.094;11.900;2023-07-13T05:18:32;8.95;;;5.18;;
11620;SDS011;5866;49.094;11.900;2023-07-13T05:21:03;6.07;;;5.18;;
11620;SDS011;5866;49.094;11.900;2023-07-13T05:23:32;6.03;;;5.40;;
11620;SDS011;5866;49.094;11.900;2023-07-13T05:26:01;11.40;;;5.65;;
11620;SDS011;5866;49.094;11.900;2023-07-13T05:28:34;3.58;;;3.28;;
11620;SDS011;5866;49.094;11.900;2023-07-13T05:31:02;6.22;;;3.55;;
11620;SDS011;5866;49.094;11.900;2023-07-13T05:33:30;4.32;;;2.70;;
11620;SDS011;5866;49.094;11.900;2023-07-13T05:35:58;7.72;;;2.85;;
11620;SDS011;5866;49.094;11.900;2023-07-13T05:38:28;3.88;;;2.35;;
11620;SDS011;5866;49.094;11.900;2023-07-13T05:41:02;4.10;;;2.80;;
11620;SDS011;5866;49.094;11.900;2023-07-13T05:43:31;5.00;;;2.80;;
11620;SDS011;5866;49.094;11.900;2023-07-13T05:46:02;3.70;;;2.78;;
11620;SDS011;5866;49.094;11.900;2023-07-13T05:48:30;3.50;;;3.00;;
11620;SDS011;5866;49.094;11.900;2023-07-13T05:50:57;4.43;;;2.60;;
11620;SDS011;5866;49.094;11.900;2023-07-13T05:53:25;3.40;;;2.40;;
11620;SDS011;5866;49.094;11.900;2023-07-13T05:55:54;3.53;;;2.33;;
11620;SDS011;5866;49.094;11.900;2023-07-13T05:58:25;4.25;;;2.85;;
11620;SDS011;5866;49.094;11.900;2023-07-13T06:00:58;2.88;;;2.45;;
11620;SDS011;5866;49.094;11.900;2023-07-13T06:03:27;3.95;;;2.30;;
11620;SDS011;5866;49.094;11.900;2023-07-13T06:05:55;3.17;;;2.97;;
11620;SDS011;5866;49.094;11.900;2023-07-13T06:08:22;2.67;;;2.47;;
11620;SDS011;5866;49.094;11.900;2023-07-13T06:10:50;3.00;;;2.80;;
11620;SDS011;5866;49.094;11.900;2023-07-13T06:13:19;2.70;;;2.42;;
11620;SDS011;5866;49.094;11.900;2023-07-13T06:15:47;3.53;;;2.33;;
11620;SDS011;5866;49.094;11.900;2023-07-13T06:18:15;2.53;;;2.33;;
11620;SDS011;5866;49.094;11.900;2023-07-13T06:20:43;2.58;;;2.28;;
11620;SDS011;5866;49.094;11.900;2023-07-13T06:23:11;4.15;;;2.47;;
11620;SDS011;5866;49.094;11.900;2023-07-13T06:25:39;2.47;;;2.28;;
11620;SDS011;5866;49.094;11.900;2023-07-13T06:28:07;5.25;;;2.85;;
11620;SDS011;5866;49.094;11.900;2023-07-13T06:30:36;3.53;;;2.67;;
11620;SDS011;5866;49.094;11.900;2023-07-13T06:33:05;3.08;;;2.60;;
11620;SDS011;5866;49.094;11.900;2023-07-13T06:35:32;4.00;;;2.60;;
11620;SDS011;5866;49.094;11.900;2023-07-13T06:38:01;2.60;;;2.50;;
11620;SDS011;5866;49.094;11.900;2023-07-13T06:40:29;3.30;;;2.53;;
11620;SDS011;5866;49.094;11.900;2023-07-13T06:42:56;3.45;;;2.63;;
11620;SDS011;5866;49.094;11.900;2023-07-13T06:45:24;3.45;;;2.55;;
11620;SDS011;5866;49.094;11.900;2023-07-13T06:47:53;3.60;;;2.38;;
11620;SDS011;5866;49.094;11.900;2023-07-13T06:50:21;4.07;;;2.50;;
11620;SDS011;5866;49.094;11.900;2023-07-13T06:52:48;3.70;;;2.78;;
11620;SDS011;5866;49.094;11.900;2023-07-13T06:55:16;4.35;;;2.33;;
11620;SDS011;5866;49.094;11.900;2023-07-13T06:57:44;4.15;;;2.42;;
11620;SDS011;5866;49.094;11.900;2023-07-13T07:00:12;7.20;;;2.10;;
11620;SDS011;5866;49.094;11.900;2023-07-13T07:02:40;2.42;;;2.22;;
11620;SDS011;5866;49.094;11.900;2023-07-13T07:05:09;2.53;;;2.00;;
11620;SDS011;5866;49.094;11.900;2023-07-13T07:07:37;2.50;;;2.08;;
11620;SDS011;5866;49.094;11.900;2023-07-13T07:10:05;2.83;;;2.30;;
11620;SDS011;5866;49.094;11.900;2023-07-13T07:12:33;3.33;;;2.50;;
11620;SDS011;5866;49.094;11.900;2023-07-13T07:15:01;5.32;;;2.40;;
11620;SDS011;5866;49.094;11.900;2023-07-13T07:17:28;4.03;;;2.67;;
11620;SDS011;5866;49.094;11.900;2023-07-13T07:19:56;3.70;;;2.47;;
11620;SDS011;5866;49.094;11.900;2023-07-13T07:22:25;4.88;;;2.70;;
11620;SDS011;5866;49.094;11.900;2023-07-13T07:24:53;3.13;;;2.58;;
11620;SDS011;5866;49.094;11.900;2023-07-13T07:27:21;2.65;;;2.17;;
11620;SDS011;5866;49.094;11.900;2023-07-13T07:29:52;3.42;;;2.40;;
11620;SDS011;5866;49.094;11.900;2023-07-13T07:32:39;2.55;;;2.35;;
11620;SDS011;5866;49.094;11.900;2023-07-13T07:35:22;5.47;;;2.50;;
11620;SDS011;5866;49.094;11.900;2023-07-13T07:37:51;2.00;;;1.80;;
11620;SDS011;5866;49.094;11.900;2023-07-13T07:40:19;3.47;;;2.17;;
11620;SDS011;5866;49.094;11.900;2023-07-13T07:42:49;2.50;;;2.30;;
11620;SDS011;5866;49.094;11.900;2023-07-13T07:49:03;2.40;;;2.20;;
11620;SDS011;5866;49.094;11.900;2023-07-13T07:51:31;4.78;;;2.50;;
11620;SDS011;5866;49.094;11.900;2023-07-13T07:54:00;4.00;;;2.70;;
11620;SDS011;5866;49.094;11.900;2023-07-13T07:56:27;2.78;;;2.20;;
11620;SDS011;5866;49.094;11.900;2023-07-13T07:58:58;3.08;;;2.70;;
11620;SDS011;5866;49.094;11.900;2023-07-13T08:01:28;3.17;;;2.65;;
11620;SDS011;5866;49.094;11.900;2023-07-13T08:03:59;2.60;;;2.35;;
11620;SDS011;5866;49.094;11.900;2023-07-13T08:06:31;3.10;;;2.20;;
11620;SDS011;5866;49.094;11.900;2023-07-13T08:09:03;3.10;;;2.20;;
11620;SDS011;5866;49.094;11.900;2023-07-13T08:11:32;2.85;;;2.35;;
11620;SDS011;5866;49.094;11.900;2023-07-13T08:14:02;3.90;;;2.55;;
11620;SDS011;5866;49.094;11.900;2023-07-13T08:16:30;3.42;;;2.20;;
11620;SDS011;5866;49.094;11.900;2023-07-13T08:18:59;2.95;;;2.33;;
11620;SDS011;5866;49.094;11.900;2023-07-13T08:21:26;2.78;;;2.13;;
11620;SDS011;5866;49.094;11.900;2023-07-13T08:23:54;2.90;;;2.22;;
11620;SDS011;5866;49.094;11.900;2023-07-13T08:26:24;7.03;;;2.47;;
11620;SDS011;5866;49.094;11.900;2023-07-13T08:28:51;5.07;;;2.30;;
11620;SDS011;5866;49.094;11.900;2023-07-13T08:31:19;3.38;;;2.10;;
11620;SDS011;5866;49.094;11.900;2023-07-13T08:33:47;2.92;;;2.10;;
11620;SDS011;5866;49.094;11.900;2023-07-13T08:36:14;4.47;;;2.10;;
11620;SDS011;5866;49.094;11.900;2023-07-13T08:38:42;2.55;;;1.95;;
11620;SDS011;5866;49.094;11.900;2023-07-13T08:41:10;1.98;;;1.77;;
11620;SDS011;5866;49.094;11.900;2023-07-13T08:43:42;7.20;;;2.20;;
11620;SDS011;5866;49.094;11.900;2023-07-13T08:46:15;5.47;;;2.05;;
11620;SDS011;5866;49.094;11.900;2023-07-13T08:48:48;2.05;;;1.83;;
11620;SDS011;5866;49.094;11.900;2023-07-13T08:51:32;2.47;;;2.20;;
11620;SDS011;5866;49.094;11.900;2023-07-13T08:54:09;4.57;;;2.60;;
11620;SDS011;5866;49.094;11.900;2023-07-13T08:56:45;3.25;;;2.20;;
11620;SDS011;5866;49.094;11.900;2023-07-13T08:59:15;2.40;;;2.20;;
11620;SDS011;5866;49.094;11.900;2023-07-13T09:01:57;2.30;;;2.10;;
11620;SDS011;5866;49.094;11.900;2023-07-13T09:04:32;2.30;;;1.90;;
11620;SDS011;5866;49.094;11.900;2023-07-13T09:07:05;2.33;;;2.00;;
11620;SDS011;5866;49.094;11.900;2023-07-13T09:09:43;3.22;;;2.53;;
11620;SDS011;5866;49.094;11.900;2023-07-13T09:12:23;2.55;;;2.13;;
11620;SDS011;5866;49.094;11.900;2023-07-13T09:14:58;3.08;;;2.40;;
11620;SDS011;5866;49.094;11.900;2023-07-13T09:17:32;2.53;;;2.33;;
11620;SDS011;5866;49.094;11.900;2023-07-13T09:20:04;3.70;;;2.20;;
11620;SDS011;5866;49.094;11.900;2023-07-13T09:22:44;3.22;;;2.65;;
11620;SDS011;5866;49.094;11.900;2023-07-13T09:25:18;3.47;;;2.75;;
11620;SDS011;5866;49.094;11.900;2023-07-13T09:27:52;2.28;;;2.17;;
11620;SDS011;5866;49.094;11.900;2023-07-13T09:30:24;2.78;;;2.05;;
11620;SDS011;5866;49.094;11.900;2023-07-13T09:33:00;5.60;;;2.33;;
11620;SDS011;5866;49.094;11.900;2023-07-13T09:35:28;3.17;;;2.22;;
11620;SDS011;5866;49.094;11.900;2023-07-13T09:37:57;6.45;;;1.80;;
11620;SDS011;5866;49.094;11.900;2023-07-13T09:40:30;3.70;;;1.83;;
11620;SDS011;5866;49.094;11.900;2023-07-13T09:43:06;1.92;;;1.73;;
11620;SDS011;5866;49.094;11.900;2023-07-13T09:45:39;2.33;;;2.13;;
11620;SDS011;5866;49.094;11.900;2023-07-13T09:48:10;2.47;;;2.25;;
11620;SDS011;5866;49.094;11.900;2023-07-13T09:50:39;2.63;;;2.15;;
11620;SDS011;5866;49.094;11.900;2023-07-13T09:53:11;3.13;;;2.25;;
11620;SDS011;5866;49.094;11.900;2023-07-13T09:55:41;4.68;;;2.40;;
11620;SDS011;5866;49.094;11.900;2023-07-13T09:58:10;3.75;;;2.50;;
11620;SDS011;5866;49.094;11.900;2023-07-13T10:00:42;2.80;;;2.53;;
11620;SDS011;5866;49.094;11.900;2023-07-13T10:03:16;2.83;;;2.60;;
11620;SDS011;5866;49.094;11.900;2023-07-13T10:05:47;2.75;;;2.55;;
11620;SDS011;5866;49.094;11.900;2023-07-13T10:08:21;2.75;;;2.22;;
11620;SDS011;5866;49.094;11.900;2023-07-13T10:10:57;3.47;;;2.50;;
11620;SDS011;5866;49.094;11.900;2023-07-13T10:13:28;3.72;;;2.38;;
11620;SDS011;5866;49.094;11.900;2023-07-13T10:16:02;2.92;;;2.53;;
11620;SDS011;5866;49.094;11.900;2023-07-13T10:18:33;3.72;;;2.55;;
11620;SDS011;5866;49.094;11.900;2023-07-13T10:21:14;4.30;;;2.55;;
11620;SDS011;5866;49.094;11.900;2023-07-13T10:24:02;2.40;;;2.20;;
11620;SDS011;5866;49.094;11.900;2023-07-13T10:26:37;2.72;;;2.53;;
11620;SDS011;5866;49.094;11.900;2023-07-13T10:29:12;3.78;;;2.45;;
11620;SDS011;5866;49.094;11.900;2023-07-13T10:31:44;3.72;;;2.10;;
11620;SDS011;5866;49.094;11.900;2023-07-13T10:34:12;2.40;;;2.00;;
11620;SDS011;5866;49.094;11.900;2023-07-13T10:36:42;3.10;;;2.25;;
11620;SDS011;5866;49.094;11.900;2023-07-13T10:39:13;2.15;;;1.95;;
11620;SDS011;5866;49.094;11.900;2023-07-13T10:41:45;2.03;;;1.83;;
11620;SDS011;5866;49.094;11.900;2023-07-13T10:44:18;2.10;;;1.90;;
11620;SDS011;5866;49.094;11.900;2023-07-13T10:46:55;3.50;;;2.42;;
11620;SDS011;5866;49.094;11.900;2023-07-13T10:49:26;1.83;;;1.73;;
11620;SDS011;5866;49.094;11.900;2023-07-13T10:51:55;2.90;;;2.03;;
11620;SDS011;5866;49.094;11.900;2023-07-13T10:54:26;2.78;;;2.15;;
11620;SDS011;5866;49.094;11.900;2023-07-13T10:57:08;1.90;;;1.80;;
11620;SDS011;5866;49.094;11.900;2023-07-13T10:59:43;1.92;;;1.83;;
11620;SDS011;5866;49.094;11.900;2023-07-13T11:02:17;3.15;;;2.20;;
11620;SDS011;5866;49.094;11.900;2023-07-13T11:04:52;4.80;;;2.53;;
11620;SDS011;5866;49.094;11.900;2023-07-13T11:07:22;2.40;;;2.20;;
11620;SDS011;5866;49.094;11.900;2023-07-13T11:09:51;2.20;;;2.10;;
11620;SDS011;5866;49.094;11.900;2023-07-13T11:12:28;5.93;;;2.95;;
11620;SDS011;5866;49.094;11.900;2023-07-13T11:15:11;2.33;;;2.13;;
11620;SDS011;5866;49.094;11.900;2023-07-13T11:17:50;4.28;;;2.47;;
11620;SDS011;5866;49.094;11.900;2023-07-13T11:20:32;3.47;;;2.13;;
11620;SDS011;5866;49.094;11.900;2023-07-13T11:23:18;3.00;;;2.25;;
11620;SDS011;5866;49.094;11.900;2023-07-13T11:25:53;1.98;;;1.88;;
11620;SDS011;5866;49.094;11.900;2023-07-13T11:28:22;1.85;;;1.75;;
11620;SDS011;5866;49.094;11.900;2023-07-13T11:31:00;2.25;;;2.00;;
11620;SDS011;5866;49.094;11.900;2023-07-13T11:33:45;1.90;;;1.75;;
11620;SDS011;5866;49.094;11.900;2023-07-13T11:36:20;2.10;;;1.48;;
11620;SDS011;5866;49.094;11.900;2023-07-13T11:38:57;4.10;;;1.70;;
11620;SDS011;5866;49.094;11.900;2023-07-13T11:41:29;2.30;;;2.10;;
11620;SDS011;5866;49.094;11.900;2023-07-13T11:44:10;1.73;;;1.50;;
11620;SDS011;5866;49.094;11.900;2023-07-13T11:46:43;1.65;;;1.50;;
11620;SDS011;5866;49.094;11.900;2023-07-13T11:49:14;2.58;;;1.90;;
11620;SDS011;5866;49.094;11.900;2023-07-13T11:51:44;2.08;;;1.55;;
11620;SDS011;5866;49.094;11.900;2023-07-13T11:54:15;1.70;;;1.60;;
11620;SDS011;5866;49.094;11.900;2023-07-13T11:56:49;3.42;;;1.80;;
11620;SDS011;5866;49.094;11.900;2023-07-13T11:59:17;2.22;;;2.00;;
11620;SDS011;5866;49.094;11.900;2023-07-13T12:01:48;1.95;;;1.75;;
11620;SDS011;5866;49.094;11.900;2023-07-13T12:04:22;2.08;;;1.88;;
11620;SDS011;5866;49.094;11.900;2023-07-13T12:06:54;2.13;;;1.50;;
11620;SDS011;5866;49.094;11.900;2023-07-13T12:09:22;2.08;;;1.55;;
11620;SDS011;5866;49.094;11.900;2023-07-13T12:11:52;4.95;;;1.48;;
11620;SDS011;5866;49.094;11.900;2023-07-13T12:14:20;2.17;;;2.00;;
11620;SDS011;5866;49.094;11.900;2023-07-13T12:16:51;1.98;;;1.55;;
11620;SDS011;5866;49.094;11.900;2023-07-13T12:19:20;2.67;;;1.77;;
11620;SDS011;5866;49.094;11.900;2023-07-13T12:21:52;2.55;;;1.80;;
11620;SDS011;5866;49.094;11.900;2023-07-13T12:24:21;1.52;;;1.40;;
11620;SDS011;5866;49.094;11.900;2023-07-13T12:26:51;3.20;;;1.65;;
11620;SDS011;5866;49.094;11.900;2023-07-13T12:29:19;2.13;;;1.45;;
11620;SDS011;5866;49.094;11.900;2023-07-13T12:31:47;2.10;;;1.50;;
11620;SDS011;5866;49.094;11.900;2023-07-13T12:34:16;1.67;;;1.58;;
11620;SDS011;5866;49.094;11.900;2023-07-13T12:36:47;1.63;;;1.52;;
11620;SDS011;5866;49.094;11.900;2023-07-13T12:39:17;2.38;;;1.60;;
11620;SDS011;5866;49.094;11.900;2023-07-13T12:41:49;2.88;;;1.90;;
11620;SDS011;5866;49.094;11.900;2023-07-13T12:44:19;3.85;;;1.60;;
11620;SDS011;5866;49.094;11.900;2023-07-13T12:46:53;2.53;;;1.70;;
11620;SDS011;5866;49.094;11.900;2023-07-13T12:49:26;1.88;;;1.70;;
11620;SDS011;5866;49.094;11.900;2023-07-13T12:51:58;2.53;;;1.65;;
11620;SDS011;5866;49.094;11.900;2023-07-13T12:54:27;1.80;;;1.58;;
11620;SDS011;5866;49.094;11.900;2023-07-13T12:56:56;2.55;;;1.70;;
11620;SDS011;5866;49.094;11.900;2023-07-13T12:59:29;1.60;;;1.50;;
11620;SDS011;5866;49.094;11.900;2023-07-13T13:01:59;2.85;;;1.70;;
11620;SDS011;5866;49.094;11.900;2023-07-13T13:04:29;2.45;;;1.70;;
11620;SDS011;5866;49.094;11.900;2023-07-13T13:07:02;2.55;;;1.70;;
11620;SDS011;5866;49.094;11.900;2023-07-13T13:09:35;1.67;;;1.50;;
11620;SDS011;5866;49.094;11.900;2023-07-13T13:12:03;4.28;;;1.70;;
11620;SDS011;5866;49.094;11.900;2023-07-13T13:14:31;2.08;;;1.88;;
11620;SDS011;5866;49.094;11.900;2023-07-13T13:16:59;4.13;;;1.90;;
11620;SDS011;5866;49.094;11.900;2023-07-13T13:19:28;1.70;;;1.60;;
11620;SDS011;5866;49.094;11.900;2023-07-13T13:21:57;1.88;;;1.70;;
11620;SDS011;5866;49.094;11.900;2023-07-13T13:24:27;2.33;;;1.60;;
11620;SDS011;5866;49.094;11.900;2023-07-13T13:26:55;1.83;;;1.55;;
11620;SDS011;5866;49.094;11.900;2023-07-13T13:29:24;1.98;;;1.77;;
11620;SDS011;5866;49.094;11.900;2023-07-13T13:31:52;2.05;;;1.75;;
11620;SDS011;5866;49.094;11.900;2023-07-13T13:34:22;2.60;;;1.70;;
11620;SDS011;5866;49.094;11.900;2023-07-13T13:36:50;2.42;;;1.70;;
11620;SDS011;5866;49.094;11.900;2023-07-13T13:39:24;1.83;;;1.50;;
11620;SDS011;5866;49.094;11.900;2023-07-13T13:41:57;3.47;;;1.73;;
11620;SDS011;5866;49.094;11.900;2023-07-13T13:44:24;1.80;;;1.40;;
11620;SDS011;5866;49.094;11.900;2023-07-13T13:46:52;2.35;;;1.80;;
11620;SDS011;5866;49.094;11.900;2023-07-13T13:49:23;2.08;;;1.58;;
11620;SDS011;5866;49.094;11.900;2023-07-13T13:51:52;1.95;;;1.70;;
11620;SDS011;5866;49.094;11.900;2023-07-13T13:54:22;3.00;;;2.00;;
11620;SDS011;5866;49.094;11.900;2023-07-13T13:56:53;4.00;;;1.60;;
11620;SDS011;5866;49.094;11.900;2023-07-13T13:59:25;2.75;;;2.20;;
11620;SDS011;5866;49.094;11.900;2023-07-13T14:01:53;2.00;;;1.80;;
11620;SDS011;5866;49.094;11.900;2023-07-13T14:04:21;3.58;;;1.80;;
11620;SDS011;5866;49.094;11.900;2023-07-13T14:06:49;1.77;;;1.60;;
11620;SDS011;5866;49.094;11.900;2023-07-13T14:09:18;2.65;;;1.73;;
11620;SDS011;5866;49.094;11.900;2023-07-13T14:11:47;2.50;;;1.80;;
11620;SDS011;5866;49.094;11.900;2023-07-13T14:14:19;2.25;;;1.75;;
11620;SDS011;5866;49.094;11.900;2023-07-13T14:16:50;1.70;;;1.50;;
11620;SDS011;5866;49.094;11.900;2023-07-13T14:19:20;3.47;;;1.83;;
11620;SDS011;5866;49.094;11.900;2023-07-13T14:21:48;2.85;;;1.90;;
11620;SDS011;5866;49.094;11.900;2023-07-13T14:24:19;2.35;;;1.90;;
11620;SDS011;5866;49.094;11.900;2023-07-13T14:26:47;2.10;;;1.55;;
11620;SDS011;5866;49.094;11.900;2023-07-13T14:29:17;2.33;;;1.77;;
11620;SDS011;5866;49.094;11.900;2023-07-13T14:31:50;1.75;;;1.65;;
11620;SDS011;5866;49.094;11.900;2023-07-13T14:34:18;2.88;;;1.85;;
11620;SDS011;5866;49.094;11.900;2023-07-13T14:36:47;2.83;;;1.98;;
11620;SDS011;5866;49.094;11.900;2023-07-13T14:39:18;2.65;;;1.77;;
11620;SDS011;5866;49.094;11.900;2023-07-13T14:41:49;3.08;;;1.75;;
11620;SDS011;5866;49.094;11.900;2023-07-13T14:44:20;2.22;;;1.80;;
11620;SDS011;5866;49.094;11.900;2023-07-13T14:46:49;3.95;;;1.65;;
11620;SDS011;5866;49.094;11.900;2023-07-13T14:49:21;2.40;;;1.67;;
11620;SDS011;5866;49.094;11.900;2023-07-13T14:51:52;4.78;;;1.95;;
11620;SDS011;5866;49.094;11.900;2023-07-13T14:54:19;2.00;;;1.80;;
11620;SDS011;5866;49.094;11.900;2023-07-13T14:56:47;2.22;;;2.00;;
11620;SDS011;5866;49.094;11.900;2023-07-13T14:59:15;2.05;;;1.83;;
11620;SDS011;5866;49.094;11.900;2023-07-13T15:01:46;2.20;;;1.60;;